createdAt,value
2023-03-26T00:00:15.408Z,99670.31
2023-03-26T00:03:05.472Z,99664.13
2023-03-26T00:05:35.442Z,99670.22
2023-03-26T00:08:05.199Z,99670.22
2023-03-26T00:10:35.137Z,99674.63
2023-03-26T00:13:05.280Z,99667.63
2023-03-26T00:15:37.207Z,99667.63
2023-03-26T00:18:09.640Z,99664.06
2023-03-26T00:20:41.679Z,99658.81
2023-03-26T00:23:11.229Z,99665.78
2023-03-26T00:25:42.427Z,99653.47
2023-03-26T00:28:12.146Z,99663.06
2023-03-26T00:30:43.511Z,99662.19
2023-03-26T00:33:13.284Z,99661.28
2023-03-26T00:35:47.231Z,99641.94
2023-03-26T00:38:18.040Z,99651.66
2023-03-26T00:40:51.027Z,99649.09
2023-03-26T00:43:21.276Z,99643.81
2023-03-26T00:45:54.563Z,99649.09
2023-03-26T00:48:31.554Z,99639.47
2023-03-26T00:51:09.094Z,99634.25
2023-03-26T00:53:39.334Z,99636.03
2023-03-26T00:56:10.123Z,99638.69
2023-03-26T00:58:39.802Z,99632.59
2023-03-26T01:01:13.831Z,99638.81
2023-03-26T01:03:56.793Z,99630.94
2023-03-26T01:06:33.146Z,99631.81
2023-03-26T01:09:05.776Z,99630.09
2023-03-26T01:11:36.754Z,99631.84
2023-03-26T01:14:07.841Z,99631.91
2023-03-26T01:16:41.766Z,99627.50
2023-03-26T01:19:27.461Z,99619.59
2023-03-26T01:21:57.694Z,99624.84
2023-03-26T01:24:28.791Z,99615.22
2023-03-26T01:27:08.111Z,99618.78
2023-03-26T01:29:42.350Z,99614.38
2023-03-26T01:32:22.606Z,99621.41
2023-03-26T01:35:00.753Z,99622.31
2023-03-26T01:37:35.875Z,99617.03
2023-03-26T01:40:12.212Z,99618.91
2023-03-26T01:42:45.561Z,99611.00
2023-03-26T01:45:17.704Z,99607.47
2023-03-26T01:47:48.100Z,99606.63
2023-03-26T01:50:18.062Z,99597.91
2023-03-26T01:52:48.022Z,99597.88
2023-03-26T01:55:19.950Z,99595.41
2023-03-26T01:57:56.160Z,99598.03
2023-03-26T02:00:30.477Z,99587.59
2023-03-26T02:03:17.768Z,99584.16
2023-03-26T02:05:52.373Z,99583.28
2023-03-26T02:08:25.228Z,99582.41
2023-03-26T02:10:58.625Z,99582.41
2023-03-26T02:13:28.848Z,99580.50
2023-03-26T02:15:59.810Z,99583.06
2023-03-26T02:18:36.568Z,99590.06
2023-03-26T02:21:10.279Z,99590.00
2023-03-26T02:23:42.293Z,99585.53
2023-03-26T02:26:13.499Z,99582.88
2023-03-26T02:28:55.999Z,99581.94
2023-03-26T02:31:26.819Z,99573.16
2023-03-26T02:33:57.671Z,99581.03
2023-03-26T02:36:29.536Z,99576.69
2023-03-26T02:39:03.012Z,99572.34
2023-03-26T02:41:37.497Z,99577.56
2023-03-26T02:44:11.355Z,99570.56
2023-03-26T02:46:59.474Z,99569.59
2023-03-26T02:49:47.963Z,99568.66
2023-03-26T02:52:37.675Z,99559.81
2023-03-26T02:55:07.966Z,99556.31
2023-03-26T02:57:41.436Z,99552.78
2023-03-26T03:00:23.138Z,99550.97
2023-03-26T03:03:12.234Z,99545.69
2023-03-26T03:06:00.518Z,99546.56
2023-03-26T03:08:41.847Z,99552.63
2023-03-26T03:11:37.986Z,99550.00
2023-03-26T03:14:09.525Z,99549.97
2023-03-26T03:16:39.487Z,99551.72
2023-03-26T03:19:11.886Z,99548.22
2023-03-26T03:21:43.450Z,99539.34
2023-03-26T03:24:14.093Z,99542.84
2023-03-26T03:26:48.621Z,99541.09
2023-03-26T03:29:32.928Z,99541.94
2023-03-26T03:32:23.193Z,99546.34
2023-03-26T03:34:55.390Z,99539.34
2023-03-26T03:37:27.318Z,99547.19
2023-03-26T03:39:58.312Z,99539.22
2023-03-26T03:42:30.530Z,99540.09
2023-03-26T03:45:06.633Z,99540.91
2023-03-26T03:47:55.089Z,99542.66
2023-03-26T03:50:35.883Z,99539.06
2023-03-26T03:53:21.840Z,99540.81
2023-03-26T03:55:54.727Z,99538.19
2023-03-26T03:58:31.303Z,99543.44
2023-03-26T04:01:11.410Z,99532.03
2023-03-26T04:03:56.043Z,99532.06
2023-03-26T04:06:30.567Z,99535.59
2023-03-26T04:09:00.585Z,99534.72
2023-03-26T04:11:30.619Z,99531.25
2023-03-26T04:14:27.053Z,99527.78
2023-03-26T04:17:05.678Z,99525.16
2023-03-26T04:19:39.501Z,99526.06
2023-03-26T04:22:12.322Z,99519.88
2023-03-26T04:24:54.753Z,99521.69
2023-03-26T04:27:27.645Z,99533.09
2023-03-26T04:30:06.532Z,99526.06
2023-03-26T04:32:40.742Z,99528.69
2023-03-26T04:35:13.219Z,99525.16
2023-03-26T04:37:46.309Z,99520.75
2023-03-26T04:40:22.169Z,99515.50
2023-03-26T04:42:55.030Z,99509.31
2023-03-26T04:45:40.709Z,99508.47
2023-03-26T04:48:14.622Z,99514.63
2023-03-26T04:50:46.491Z,99510.22
2023-03-26T04:53:17.924Z,99504.06
2023-03-26T04:56:08.568Z,99504.94
2023-03-26T04:59:00.325Z,99502.25
2023-03-26T05:01:32.511Z,99504.03
2023-03-26T05:04:03.621Z,99504.94
2023-03-26T05:06:34.688Z,99496.16
2023-03-26T05:09:12.308Z,99499.66
2023-03-26T05:12:09.405Z,99494.38
2023-03-26T05:14:50.889Z,99490.84
2023-03-26T05:17:31.198Z,99505.78
2023-03-26T05:20:02.599Z,99499.59
2023-03-26T05:22:32.586Z,99505.75
2023-03-26T05:25:18.277Z,99510.91
2023-03-26T05:27:48.922Z,99512.66
2023-03-26T05:30:20.141Z,99508.22
2023-03-26T05:32:53.439Z,99508.97
2023-03-26T05:35:29.446Z,99508.97
2023-03-26T05:37:59.418Z,99512.38
2023-03-26T05:40:31.026Z,99514.16
2023-03-26T05:43:03.574Z,99512.50
2023-03-26T05:45:49.291Z,99522.13
2023-03-26T05:48:28.033Z,99522.13
2023-03-26T05:50:59.885Z,99514.03
2023-03-26T05:53:32.724Z,99509.66
2023-03-26T05:56:14.512Z,99521.00
2023-03-26T05:59:03.054Z,99514.75
2023-03-26T06:01:51.367Z,99509.34
2023-03-26T06:04:42.950Z,99522.38
2023-03-26T06:07:27.418Z,99520.66
2023-03-26T06:10:10.960Z,99516.31
2023-03-26T06:12:49.914Z,99512.72
2023-03-26T06:15:20.838Z,99516.94
2023-03-26T06:18:04.299Z,99515.94
2023-03-26T06:20:55.907Z,99516.84
2023-03-26T06:23:44.758Z,99522.09
2023-03-26T06:26:32.672Z,99515.13
2023-03-26T06:29:13.806Z,99520.34
2023-03-26T06:32:12.355Z,99516.25
2023-03-26T06:35:14.861Z,99519.56
2023-03-26T06:37:45.091Z,99518.78
2023-03-26T06:40:16.668Z,99523.94
2023-03-26T06:43:15.614Z,99519.53
2023-03-26T06:45:52.261Z,99523.94
2023-03-26T06:48:34.620Z,99523.19
2023-03-26T06:51:22.817Z,99530.09
2023-03-26T06:54:11.140Z,99519.56
2023-03-26T06:56:50.091Z,99517.00
2023-03-26T06:59:38.494Z,99521.38
2023-03-26T07:02:26.973Z,99523.97
2023-03-26T07:05:15.853Z,99525.69
2023-03-26T07:08:03.982Z,99525.56
2023-03-26T07:10:39.851Z,99519.41
2023-03-26T07:13:29.092Z,99525.50
2023-03-26T07:16:18.581Z,99529.88
2023-03-26T07:19:03.493Z,99531.50
2023-03-26T07:21:38.277Z,99541.22
2023-03-26T07:24:23.493Z,99535.00
2023-03-26T07:27:11.517Z,99538.38
2023-03-26T07:29:47.037Z,99533.75
2023-03-26T07:32:43.654Z,99545.06
2023-03-26T07:35:26.017Z,99543.31
2023-03-26T07:38:29.745Z,99548.72
2023-03-26T07:41:20.404Z,99552.34
2023-03-26T07:44:27.821Z,99543.50
2023-03-26T07:47:34.892Z,99548.78
2023-03-26T07:50:22.276Z,99546.13
2023-03-26T07:52:59.662Z,99550.38
2023-03-26T07:55:37.781Z,99547.69
2023-03-26T07:59:00.032Z,99544.88
2023-03-26T08:02:18.333Z,99556.50
2023-03-26T08:05:10.659Z,99556.59
2023-03-26T08:08:03.121Z,99552.19
2023-03-26T08:10:43.978Z,99549.34
2023-03-26T08:13:23.725Z,99550.34
2023-03-26T08:15:59.395Z,99553.53
2023-03-26T08:18:39.555Z,99550.06
2023-03-26T08:21:14.370Z,99550.66
2023-03-26T08:23:50.860Z,99554.88
2023-03-26T08:26:27.954Z,99551.47
2023-03-26T08:29:04.130Z,99561.84
2023-03-26T08:31:35.348Z,99566.22
2023-03-26T08:34:05.676Z,99566.16
2023-03-26T08:36:37.289Z,99566.16
2023-03-26T08:39:07.981Z,99558.16
2023-03-26T08:41:58.987Z,99563.25
2023-03-26T08:44:56.585Z,99566.75
2023-03-26T08:47:41.862Z,99559.88
2023-03-26T08:50:36.633Z,99564.31
2023-03-26T08:53:22.994Z,99567.53
2023-03-26T08:55:57.815Z,99565.53
2023-03-26T08:58:51.008Z,99557.06
2023-03-26T09:01:40.378Z,99558.19
2023-03-26T09:04:43.465Z,99557.22
2023-03-26T09:07:32.327Z,99562.00
2023-03-26T09:10:16.805Z,99556.19
2023-03-26T09:13:04.802Z,99563.09
2023-03-26T09:15:55.071Z,99560.63
2023-03-26T09:18:38.833Z,99553.91
2023-03-26T09:21:14.069Z,99551.63
2023-03-26T09:24:04.747Z,99551.25
2023-03-26T09:26:54.048Z,99560.38
2023-03-26T09:29:45.298Z,99561.31
2023-03-26T09:32:32.623Z,99561.25
2023-03-26T09:35:23.474Z,99565.22
2023-03-26T09:37:58.744Z,99565.06
2023-03-26T09:40:38.478Z,99565.53
2023-03-26T09:43:29.720Z,99574.00
2023-03-26T09:46:05.302Z,99578.28
2023-03-26T09:48:49.724Z,99572.72
2023-03-26T09:51:31.355Z,99568.00
2023-03-26T09:54:31.151Z,99574.97
2023-03-26T09:57:07.554Z,99580.09
2023-03-26T09:59:57.847Z,99581.06
2023-03-26T10:02:46.733Z,99582.06
2023-03-26T10:05:28.503Z,99596.16
2023-03-26T10:08:05.905Z,99592.06
2023-03-26T10:10:40.935Z,99600.53
2023-03-26T10:13:18.455Z,99603.56
2023-03-26T10:15:59.973Z,99596.34
2023-03-26T10:18:36.467Z,99594.72
2023-03-26T10:21:09.256Z,99597.03
2023-03-26T10:24:06.316Z,99596.28
2023-03-26T10:26:42.771Z,99587.16
2023-03-26T10:29:51.352Z,99585.19
2023-03-26T10:32:26.699Z,99594.69
2023-03-26T10:35:05.886Z,99595.16
2023-03-26T10:37:41.911Z,99601.97
2023-03-26T10:40:20.511Z,99597.22
2023-03-26T10:42:56.882Z,99589.63
2023-03-26T10:45:33.582Z,99590.06
2023-03-26T10:48:13.021Z,99599.66
2023-03-26T10:50:55.602Z,99585.81
2023-03-26T10:53:30.671Z,99585.19
2023-03-26T10:56:14.044Z,99581.44
2023-03-26T10:58:48.417Z,99584.91
2023-03-26T11:01:25.311Z,99588.31
2023-03-26T11:03:55.427Z,99588.41
2023-03-26T11:06:29.531Z,99594.34
2023-03-26T11:09:03.790Z,99593.31
2023-03-26T11:11:39.812Z,99590.06
2023-03-26T11:14:41.036Z,99593.53
2023-03-26T11:17:39.713Z,99595.53
2023-03-26T11:20:11.562Z,99600.34
2023-03-26T11:22:48.834Z,99593.22
2023-03-26T11:25:28.518Z,99597.81
2023-03-26T11:28:09.634Z,99614.13
2023-03-26T11:30:46.100Z,99608.97
2023-03-26T11:33:19.851Z,99613.41
2023-03-26T11:35:51.213Z,99618.31
2023-03-26T11:38:23.299Z,99604.91
2023-03-26T11:40:56.283Z,99622.97
2023-03-26T11:43:52.729Z,99621.22
2023-03-26T11:46:24.517Z,99615.75
2023-03-26T11:48:57.778Z,99616.78
2023-03-26T11:51:29.486Z,99612.97
2023-03-26T11:53:59.564Z,99617.72
2023-03-26T11:56:30.968Z,99609.50
2023-03-26T11:59:05.886Z,99609.66
2023-03-26T12:01:44.488Z,99611.19
2023-03-26T12:04:16.145Z,99618.41
2023-03-26T12:06:53.040Z,99616.63
2023-03-26T12:09:23.082Z,99623.63
2023-03-26T12:11:56.010Z,99606.81
2023-03-26T12:14:28.472Z,99601.75
2023-03-26T12:16:59.086Z,99608.75
2023-03-26T12:19:29.390Z,99621.09
2023-03-26T12:21:59.268Z,99615.50
2023-03-26T12:24:30.828Z,99617.19
2023-03-26T12:27:02.709Z,99609.56
2023-03-26T12:29:34.882Z,99614.66
2023-03-26T12:32:06.793Z,99631.25
2023-03-26T12:34:38.407Z,99621.94
2023-03-26T12:37:09.233Z,99630.19
2023-03-26T12:40:10.632Z,99629.00
2023-03-26T12:44:45.117Z,99642.72
2023-03-26T12:45:25.413Z,99647.31
2023-03-26T12:48:03.544Z,99651.84
2023-03-26T12:50:43.009Z,99639.13
2023-03-26T16:42:26.761Z,99705.06
2023-03-26T16:45:16.550Z,99768.88
2023-03-26T16:48:46.182Z,99772.50
2023-03-26T16:55:17.385Z,99779.59
2023-03-26T16:58:01.585Z,99790.13
2023-03-26T17:04:28.755Z,99794.50
2023-03-26T17:08:35.966Z,99804.31
2023-03-26T17:12:09.116Z,99805.22
2023-03-26T17:19:38.344Z,99819.22
2023-03-26T18:10:02.049Z,99861.09
2023-03-26T18:14:04.299Z,99861.97
2023-03-26T18:18:16.342Z,99869.88
2023-03-26T18:37:29.725Z,99863.72
2023-03-26T18:52:17.374Z,99854.13
2023-03-26T19:01:11.919Z,99853.25
2023-03-26T19:04:09.917Z,99852.34
2023-03-26T19:06:59.026Z,99845.38
2023-03-26T19:09:39.590Z,99847.97
2023-03-26T19:12:26.401Z,99843.63
2023-03-26T19:15:20.694Z,99842.72
2023-03-26T19:18:13.555Z,99845.38
2023-03-26T19:21:06.224Z,99837.47
2023-03-26T19:23:47.564Z,99846.22
2023-03-26T19:26:31.766Z,99843.56
2023-03-26T19:30:08.499Z,99827.84
2023-03-26T19:33:28.162Z,99836.59
2023-03-26T19:36:33.914Z,99840.97
2023-03-26T19:39:59.348Z,99842.69
2023-03-26T19:43:16.797Z,99841.81
2023-03-26T19:48:14.491Z,99840.03
2023-03-26T19:50:46.363Z,99837.44
2023-03-26T19:57:56.415Z,99831.22
2023-03-26T20:02:25.726Z,99841.72
2023-03-26T20:16:28.925Z,99819.97
2023-03-26T20:57:57.143Z,99800.59
2023-03-26T21:01:32.655Z,99797.91
2023-03-26T21:52:24.001Z,99797.69
2023-03-26T21:55:03.308Z,99798.56
2023-03-26T21:57:58.832Z,99800.31
2023-03-26T22:01:19.156Z,99806.38
2023-03-26T22:04:07.958Z,99804.69
2023-03-26T22:06:58.980Z,99809.97
2023-03-26T22:09:49.462Z,99805.56
2023-03-26T22:12:31.484Z,99810.84
2023-03-26T22:15:18.604Z,99812.59
2023-03-26T22:18:10.228Z,99815.19
2023-03-26T22:20:51.916Z,99816.94
2023-03-26T22:23:40.383Z,99827.41
2023-03-26T22:26:21.867Z,99818.69
2023-03-26T22:29:20.143Z,99823.09
2023-03-26T22:32:14.479Z,99826.63
2023-03-26T22:34:53.705Z,99822.31
2023-03-26T22:37:28.768Z,99818.09
2023-03-26T22:40:22.970Z,99820.81
2023-03-26T22:43:29.866Z,99830.47
2023-03-26T22:46:28.259Z,99836.59
2023-03-26T22:49:51.066Z,99833.94
2023-03-26T22:53:08.358Z,99834.84
2023-03-26T22:56:23.572Z,99835.69
2023-03-26T22:59:59.750Z,99834.84
2023-03-26T23:02:59.647Z,99836.59
2023-03-26T23:05:42.597Z,99838.34
2023-03-26T23:08:39.793Z,99839.19
2023-03-26T23:28:06.845Z,99838.34
2023-03-26T23:31:02.986Z,99839.22
2023-03-26T23:34:01.487Z,99846.22
2023-03-26T23:36:54.727Z,99847.97
2023-03-26T23:40:19.706Z,99837.47
2023-03-26T23:43:10.770Z,99845.34
2023-03-26T23:46:13.637Z,99845.34
2023-03-26T23:49:13.986Z,99854.97
2023-03-26T23:52:01.664Z,99856.69
2023-03-26T23:54:42.964Z,99854.06
2023-03-26T23:57:40.804Z,99866.31
